createdAt,value
2023-03-19T00:00:51.696Z,2.13
2023-03-19T00:03:19.216Z,3.15
2023-03-19T00:05:55.924Z,1.85
2023-03-19T00:08:23.828Z,3.67
2023-03-19T00:10:51.924Z,4.38
2023-03-19T00:13:20.338Z,4.60
2023-03-19T00:15:48.274Z,4.13
2023-03-19T00:18:16.140Z,7.03
2023-03-19T00:20:44.551Z,4.22
2023-03-19T00:23:12.262Z,6.00
2023-03-19T00:25:39.822Z,2.95
2023-03-19T00:28:07.452Z,3.28
2023-03-19T00:30:35.344Z,5.28
2023-03-19T00:33:03.529Z,4.38
2023-03-19T00:35:31.232Z,3.25
2023-03-19T00:37:58.793Z,7.40
2023-03-19T00:40:26.372Z,5.63
2023-03-19T00:42:53.995Z,3.22
2023-03-19T00:45:21.641Z,4.70
2023-03-19T00:47:49.164Z,5.30
2023-03-19T00:50:16.951Z,3.42
2023-03-19T00:52:44.460Z,5.05
2023-03-19T00:55:12.026Z,3.22
2023-03-19T00:57:39.589Z,5.53
2023-03-19T01:00:08.640Z,5.90
2023-03-19T01:02:36.177Z,10.60
2023-03-19T01:05:04.100Z,5.35
2023-03-19T01:07:31.595Z,10.50
2023-03-19T01:09:59.226Z,4.53
2023-03-19T01:12:26.779Z,5.15
2023-03-19T01:14:54.525Z,6.93
2023-03-19T01:17:22.049Z,4.45
2023-03-19T01:19:50.932Z,4.20
2023-03-19T01:22:18.523Z,6.93
2023-03-19T01:24:46.058Z,4.63
2023-03-19T01:27:13.622Z,6.55
2023-03-19T01:29:41.163Z,6.05
2023-03-19T01:32:08.817Z,6.75
2023-03-19T01:34:36.613Z,5.45
2023-03-19T01:37:04.183Z,6.18
2023-03-19T01:39:31.758Z,4.38
2023-03-19T01:42:03.257Z,4.22
2023-03-19T01:44:36.962Z,5.68
2023-03-19T01:47:09.112Z,5.95
2023-03-19T01:49:37.046Z,4.82
2023-03-19T01:52:07.345Z,6.15
2023-03-19T01:54:35.345Z,6.00
2023-03-19T01:57:12.327Z,8.68
2023-03-19T01:59:54.073Z,6.03
2023-03-19T02:02:30.483Z,6.95
2023-03-19T02:05:02.827Z,6.63
2023-03-19T02:10:02.132Z,7.53
2023-03-19T02:12:29.617Z,10.35
2023-03-19T02:14:57.132Z,7.97
2023-03-19T02:17:25.040Z,7.00
2023-03-19T02:20:03.108Z,6.35
2023-03-19T02:22:32.805Z,6.78
2023-03-19T02:25:03.647Z,6.10
2023-03-19T02:27:31.341Z,7.68
2023-03-19T02:29:58.849Z,7.90
2023-03-19T02:32:27.012Z,9.57
2023-03-19T02:34:54.483Z,8.32
2023-03-19T02:37:26.161Z,7.38
2023-03-19T02:40:07.829Z,11.60
2023-03-19T02:42:36.097Z,7.75
2023-03-19T02:45:03.724Z,12.82
2023-03-19T02:47:31.577Z,9.45
2023-03-19T02:49:59.116Z,10.00
2023-03-19T02:52:26.976Z,9.07
2023-03-19T02:54:54.593Z,10.48
2023-03-19T02:57:22.184Z,10.45
2023-03-19T02:59:49.713Z,13.60
2023-03-19T03:02:17.510Z,13.93
2023-03-19T03:04:45.914Z,10.07
2023-03-19T03:07:13.553Z,17.77
2023-03-19T03:09:41.322Z,13.32
2023-03-19T03:12:09.288Z,13.50
2023-03-19T03:14:36.920Z,12.75
2023-03-19T03:17:04.640Z,14.93
2023-03-19T03:19:32.181Z,13.82
2023-03-19T03:22:00.693Z,14.43
2023-03-19T03:24:28.824Z,14.32
2023-03-19T03:26:56.308Z,13.00
2023-03-19T03:29:24.139Z,12.98
2023-03-19T03:31:51.936Z,14.05
2023-03-19T03:34:19.891Z,17.90
2023-03-19T03:36:47.924Z,15.48
2023-03-19T03:39:15.484Z,17.05
2023-03-19T03:41:43.074Z,13.90
2023-03-19T03:44:10.548Z,13.88
2023-03-19T03:46:38.241Z,14.18
2023-03-19T03:49:05.737Z,17.10
2023-03-19T03:51:33.242Z,15.65
2023-03-19T03:54:01.168Z,17.30
2023-03-19T03:56:28.759Z,14.10
2023-03-19T03:58:56.567Z,15.25
2023-03-19T04:01:24.113Z,15.32
2023-03-19T04:03:51.722Z,17.85
2023-03-19T04:06:23.096Z,16.58
2023-03-19T04:08:50.961Z,16.53
2023-03-19T04:11:18.514Z,19.50
2023-03-19T04:13:46.886Z,14.55
2023-03-19T04:16:15.554Z,16.95
2023-03-19T04:18:43.116Z,16.10
2023-03-19T04:21:10.684Z,20.15
2023-03-19T04:23:38.439Z,19.30
2023-03-19T04:26:08.037Z,16.58
2023-03-19T04:28:36.294Z,17.45
2023-03-19T04:31:08.254Z,16.35
2023-03-19T04:33:36.789Z,18.85
2023-03-19T04:36:05.248Z,17.95
2023-03-19T04:38:32.906Z,18.42
2023-03-19T04:41:01.616Z,17.70
2023-03-19T04:43:29.135Z,20.77
2023-03-19T04:45:56.842Z,19.80
2023-03-19T04:48:24.486Z,18.42
2023-03-19T04:50:53.305Z,22.08
2023-03-19T04:53:21.374Z,20.55
2023-03-19T04:55:48.848Z,20.48
2023-03-19T04:58:16.567Z,25.10
2023-03-19T05:00:46.875Z,21.95
2023-03-19T05:03:17.619Z,24.40
2023-03-19T05:05:45.290Z,22.52
2023-03-19T05:08:13.656Z,25.17
2023-03-19T05:10:41.649Z,24.40
2023-03-19T05:13:09.264Z,23.25
2023-03-19T05:15:36.891Z,25.05
2023-03-19T05:18:04.491Z,21.42
2023-03-19T05:20:32.240Z,24.85
2023-03-19T05:23:00.029Z,28.08
2023-03-19T05:25:28.065Z,33.42
2023-03-19T05:27:55.697Z,40.85
2023-03-19T05:30:23.608Z,43.53
2023-03-19T05:32:51.653Z,42.03
2023-03-19T05:35:19.524Z,32.90
2023-03-19T05:37:47.154Z,39.67
2023-03-19T05:40:14.833Z,37.53
2023-03-19T05:42:42.397Z,42.58
2023-03-19T05:45:10.098Z,44.60
2023-03-19T05:47:37.707Z,38.63
2023-03-19T05:50:05.533Z,37.15
2023-03-19T05:52:33.026Z,45.55
2023-03-19T05:55:00.587Z,37.50
2023-03-19T05:57:28.303Z,39.55
2023-03-19T05:59:55.776Z,37.30
2023-03-19T06:02:23.394Z,34.13
2023-03-19T06:04:51.209Z,34.88
2023-03-19T06:07:18.784Z,34.72
2023-03-19T06:09:46.638Z,33.97
2023-03-19T06:12:14.132Z,28.60
2023-03-19T06:14:41.679Z,35.63
2023-03-19T06:17:09.401Z,24.60
2023-03-19T06:19:36.980Z,29.38
2023-03-19T06:22:04.540Z,27.23
2023-03-19T06:24:32.065Z,26.13
2023-03-19T06:26:59.544Z,28.40
2023-03-19T06:29:27.181Z,26.02
2023-03-19T06:31:57.548Z,30.95
2023-03-19T06:34:25.703Z,29.15
2023-03-19T06:36:53.793Z,27.08
2023-03-19T06:39:22.650Z,29.40
2023-03-19T06:41:50.324Z,26.90
2023-03-19T06:44:17.963Z,28.60
2023-03-19T06:46:46.147Z,34.13
2023-03-19T06:49:13.641Z,30.10
2023-03-19T06:51:41.520Z,28.80
2023-03-19T06:54:09.032Z,31.15
2023-03-19T06:56:36.779Z,30.45
2023-03-19T06:59:05.217Z,28.77
2023-03-19T07:01:32.849Z,30.83
2023-03-19T07:04:00.418Z,29.83
2023-03-19T07:06:27.982Z,29.23
2023-03-19T07:08:57.104Z,31.30
2023-03-19T07:11:24.666Z,29.58
2023-03-19T07:13:52.289Z,34.95
2023-03-19T07:16:20.800Z,27.63
2023-03-19T07:18:48.368Z,34.42
2023-03-19T07:21:15.916Z,28.33
2023-03-19T07:23:43.464Z,28.52
2023-03-19T07:26:11.584Z,29.92
2023-03-19T07:28:39.113Z,32.05
2023-03-19T07:31:07.001Z,31.90
2023-03-19T07:33:34.848Z,30.40
2023-03-19T07:36:02.429Z,30.67
2023-03-19T07:38:29.973Z,33.28
2023-03-19T07:41:02.383Z,30.20
2023-03-19T07:43:30.844Z,36.70
2023-03-19T07:45:58.650Z,36.92
2023-03-19T07:48:26.303Z,39.47
2023-03-19T07:50:54.430Z,35.17
2023-03-19T07:53:22.043Z,35.72
2023-03-19T07:55:49.931Z,37.00
2023-03-19T07:58:18.216Z,40.60
2023-03-19T08:00:46.136Z,34.63
2023-03-19T08:03:13.962Z,36.10
2023-03-19T08:05:41.975Z,31.58
2023-03-19T08:08:09.709Z,34.30
2023-03-19T08:10:38.789Z,30.67
2023-03-19T08:13:06.854Z,33.75
2023-03-19T08:15:34.702Z,31.20
2023-03-19T08:18:04.878Z,28.20
2023-03-19T08:20:33.489Z,28.65
2023-03-19T08:23:01.225Z,29.08
2023-03-19T08:25:32.350Z,25.98
2023-03-19T08:28:01.415Z,26.13
2023-03-19T08:30:29.406Z,25.27
2023-03-19T08:32:57.450Z,21.70
2023-03-19T08:35:26.965Z,24.23
2023-03-19T08:37:55.608Z,21.30
2023-03-19T08:40:23.813Z,19.75
2023-03-19T08:42:51.398Z,24.27
2023-03-19T08:45:19.939Z,28.35
2023-03-19T08:47:47.618Z,25.15
2023-03-19T08:50:15.749Z,28.98
2023-03-19T08:52:43.385Z,31.65
2023-03-19T08:55:11.501Z,32.92
2023-03-19T08:57:39.104Z,30.63
2023-03-19T09:00:07.758Z,32.15
2023-03-19T09:02:35.298Z,27.23
2023-03-19T09:05:02.859Z,34.38
2023-03-19T09:07:30.584Z,29.00
2023-03-19T09:09:58.179Z,32.33
2023-03-19T09:12:26.089Z,28.02
2023-03-19T09:14:53.555Z,32.45
2023-03-19T09:17:21.098Z,29.58
2023-03-19T09:19:48.634Z,28.65
2023-03-19T09:22:16.163Z,27.77
2023-03-19T09:24:43.913Z,28.00
2023-03-19T09:27:11.532Z,29.02
2023-03-19T09:29:39.070Z,35.67
2023-03-19T09:32:06.951Z,32.25
2023-03-19T09:34:34.510Z,34.78
2023-03-19T09:37:02.118Z,30.58
2023-03-19T09:39:29.964Z,29.45
2023-03-19T09:42:21.876Z,27.00
2023-03-19T09:44:50.247Z,30.75
2023-03-19T09:47:27.024Z,28.85
2023-03-19T09:49:58.226Z,30.98
2023-03-19T09:52:43.689Z,30.75
2023-03-19T09:55:17.448Z,30.52
2023-03-19T09:57:45.225Z,26.23
2023-03-19T10:00:23.328Z,31.05
2023-03-19T10:03:13.245Z,28.60
2023-03-19T10:05:51.484Z,28.85
2023-03-19T10:08:27.577Z,25.80
2023-03-19T10:11:04.776Z,25.10
2023-03-19T10:14:11.025Z,24.80
2023-03-19T10:16:42.439Z,23.42
2023-03-19T10:19:14.032Z,18.95
2023-03-19T10:21:46.956Z,19.05
2023-03-19T10:24:24.703Z,21.58
2023-03-19T10:27:01.574Z,26.48
2023-03-19T10:29:29.316Z,23.15
2023-03-19T10:32:14.216Z,26.73
2023-03-19T10:34:53.994Z,23.85
2023-03-19T10:37:28.444Z,22.50
2023-03-19T10:40:01.452Z,27.30
2023-03-19T10:43:03.040Z,20.90
2023-03-19T10:45:30.672Z,25.23
2023-03-19T10:47:59.589Z,29.40
2023-03-19T10:50:35.543Z,23.88
2023-03-19T10:53:22.324Z,27.65
2023-03-19T10:56:00.947Z,24.85
2023-03-19T10:58:31.692Z,29.40
2023-03-19T11:01:05.696Z,19.33
2023-03-19T11:03:38.044Z,26.85
2023-03-19T11:06:37.666Z,18.75
2023-03-19T11:09:11.372Z,26.58
2023-03-19T11:11:54.667Z,29.00
2023-03-19T11:14:29.065Z,27.70
2023-03-19T11:17:05.684Z,22.08
2023-03-19T11:19:40.970Z,22.42
2023-03-19T11:22:08.480Z,25.75
2023-03-19T11:24:41.124Z,21.10
2023-03-19T11:27:11.541Z,25.73
2023-03-19T11:29:43.008Z,28.67
2023-03-19T11:32:32.262Z,23.13
2023-03-19T11:35:08.519Z,21.48
2023-03-19T11:37:58.281Z,23.30
2023-03-19T11:40:57.578Z,24.58
2023-03-19T11:43:50.687Z,27.60
2023-03-19T11:46:42.910Z,27.80
2023-03-19T11:49:19.402Z,28.88
2023-03-19T11:52:00.830Z,31.73
2023-03-19T11:54:32.188Z,28.30
2023-03-19T11:57:15.452Z,26.93
2023-03-19T12:00:01.038Z,23.83
2023-03-19T12:02:57.713Z,25.65
2023-03-19T12:05:34.377Z,32.55
2023-03-19T12:08:08.126Z,28.63
2023-03-19T12:10:41.399Z,30.40
2023-03-19T12:13:17.193Z,30.00
2023-03-19T12:15:57.567Z,37.45
2023-03-19T12:18:54.285Z,36.72
2023-03-19T12:21:32.476Z,33.38
2023-03-19T12:24:05.055Z,34.10
2023-03-19T12:26:39.204Z,30.17
2023-03-19T12:29:22.092Z,34.90
2023-03-19T12:32:08.357Z,34.00
2023-03-19T12:34:39.141Z,35.53
2023-03-19T12:37:24.897Z,40.95
2023-03-19T12:40:30.004Z,34.70
2023-03-19T12:43:00.108Z,36.95
2023-03-19T12:45:32.061Z,38.78
2023-03-19T12:48:13.020Z,32.90
2023-03-19T12:50:45.144Z,39.47
2023-03-19T12:53:31.198Z,27.95
2023-03-19T12:56:03.293Z,26.90
2023-03-19T12:58:44.913Z,29.50
2023-03-19T13:01:18.352Z,28.23
2023-03-19T13:04:00.445Z,29.63
2023-03-19T13:06:30.021Z,27.98
2023-03-19T13:09:18.767Z,24.85
2023-03-19T13:11:55.868Z,27.17
2023-03-19T13:14:33.634Z,25.48
2023-03-19T13:17:21.405Z,23.10
2023-03-19T13:19:52.729Z,21.05
2023-03-19T13:22:23.246Z,20.73
2023-03-19T13:24:53.460Z,20.63
2023-03-19T13:27:28.099Z,19.00
2023-03-19T13:30:10.967Z,22.58
2023-03-19T13:32:39.001Z,21.23
2023-03-19T13:35:22.377Z,16.42
2023-03-19T13:37:57.424Z,20.00
2023-03-19T13:41:01.142Z,17.52
2023-03-19T13:43:31.754Z,15.77
2023-03-19T13:46:12.748Z,19.20
2023-03-19T13:49:00.550Z,13.82
2023-03-19T13:51:32.996Z,17.10
2023-03-19T13:54:00.432Z,20.85
2023-03-19T13:56:30.707Z,17.42
2023-03-19T13:59:16.391Z,16.75
2023-03-19T14:01:48.657Z,18.40
2023-03-19T14:06:51.135Z,16.42
2023-03-19T14:09:49.437Z,16.77
2023-03-19T14:12:17.004Z,20.73
2023-03-19T14:18:18.751Z,14.70
2023-03-19T14:20:59.219Z,19.58
2023-03-19T14:23:40.566Z,23.48
2023-03-19T14:26:22.882Z,17.42
2023-03-19T14:28:54.810Z,18.02
2023-03-19T14:31:45.834Z,16.75
2023-03-19T14:34:25.794Z,16.20
2023-03-19T14:37:11.549Z,16.63
2023-03-19T14:39:44.463Z,17.30
2023-03-19T14:42:32.052Z,17.52
2023-03-19T14:45:09.250Z,17.75
2023-03-19T14:47:52.837Z,19.25
2023-03-19T14:50:28.344Z,18.02
2023-03-19T14:53:18.866Z,14.23
2023-03-19T14:55:52.004Z,17.13
2023-03-19T14:58:23.246Z,16.30
2023-03-19T15:00:54.086Z,18.58
2023-03-19T15:03:36.998Z,17.00
2023-03-19T15:06:07.701Z,20.58
2023-03-19T15:08:39.295Z,20.52
2023-03-19T15:11:23.967Z,15.25
2023-03-19T15:13:54.241Z,14.13
2023-03-19T15:16:44.526Z,15.48
2023-03-19T15:19:12.754Z,16.10
2023-03-19T15:21:40.928Z,15.60
2023-03-19T15:24:15.885Z,12.00
2023-03-19T15:26:43.423Z,15.07
2023-03-19T15:29:13.587Z,17.40
2023-03-19T15:32:02.344Z,21.80
2023-03-19T15:34:32.095Z,17.17
2023-03-19T15:37:05.701Z,18.20
2023-03-19T15:39:38.496Z,20.67
2023-03-19T15:42:06.829Z,22.05
2023-03-19T15:44:45.593Z,20.10
2023-03-19T15:47:18.623Z,29.58
2023-03-19T15:50:00.180Z,23.83
2023-03-19T15:52:29.092Z,17.53
2023-03-19T15:54:57.194Z,28.73
2023-03-19T15:57:26.014Z,27.50
2023-03-19T15:59:56.814Z,31.27
2023-03-19T16:02:33.883Z,30.13
2023-03-19T16:07:58.141Z,32.95
2023-03-19T16:10:34.360Z,33.70
2023-03-19T16:13:05.066Z,35.40
2023-03-19T16:15:43.888Z,39.50
2023-03-19T16:18:17.947Z,30.70
2023-03-19T16:20:51.112Z,37.03
2023-03-19T16:23:19.735Z,32.60
2023-03-19T16:25:48.250Z,29.48
2023-03-19T16:28:23.785Z,32.72
2023-03-19T16:30:52.696Z,33.72
2023-03-19T16:33:20.873Z,31.00
2023-03-19T16:35:48.585Z,29.85
2023-03-19T16:38:23.665Z,28.25
2023-03-19T16:41:16.284Z,32.22
2023-03-19T16:43:47.189Z,29.90
2023-03-19T16:46:16.732Z,38.08
2023-03-19T16:48:44.453Z,29.25
2023-03-19T16:51:18.450Z,32.13
2023-03-19T16:53:47.341Z,34.70
2023-03-19T16:56:18.745Z,30.42
2023-03-19T16:58:48.461Z,28.30
2023-03-19T17:01:24.918Z,29.88
2023-03-19T17:03:53.784Z,27.80
2023-03-19T17:06:22.581Z,31.55
2023-03-19T17:08:50.440Z,30.45
2023-03-19T17:11:35.208Z,32.45
2023-03-19T17:14:03.856Z,28.02
2023-03-19T17:16:31.629Z,28.42
2023-03-19T17:18:59.593Z,24.77
2023-03-19T17:21:30.883Z,23.75
2023-03-19T17:23:58.492Z,30.65
2023-03-19T17:26:28.671Z,29.50
2023-03-19T17:28:57.708Z,28.88
2023-03-19T17:31:31.220Z,29.30
2023-03-19T17:34:13.495Z,27.10
2023-03-19T17:36:41.205Z,30.80
2023-03-19T17:39:11.279Z,28.35
2023-03-19T17:41:38.888Z,30.08
2023-03-19T17:44:06.910Z,31.65
2023-03-19T17:46:39.796Z,32.08
2023-03-19T17:49:13.308Z,32.90
2023-03-19T17:51:40.847Z,32.75
2023-03-19T17:54:12.729Z,33.20
2023-03-19T17:56:41.711Z,27.55
2023-03-19T17:59:09.319Z,38.60
2023-03-19T18:01:37.650Z,32.90
2023-03-19T18:04:05.728Z,31.13
2023-03-19T18:06:36.514Z,31.25
2023-03-19T18:09:04.289Z,34.35
2023-03-19T18:11:31.963Z,35.88
2023-03-19T18:13:59.522Z,36.85
2023-03-19T18:16:30.345Z,33.28
2023-03-19T18:19:01.385Z,39.72
2023-03-19T18:21:30.034Z,30.38
2023-03-19T18:23:57.774Z,37.35
2023-03-19T18:26:26.398Z,34.28
2023-03-19T18:28:53.938Z,33.38
2023-03-19T18:31:25.467Z,33.20
2023-03-19T18:33:57.821Z,31.60
2023-03-19T18:38:55.861Z,34.40
2023-03-19T18:41:25.671Z,35.40
2023-03-19T18:43:53.261Z,37.38
2023-03-19T18:46:29.124Z,43.78
2023-03-19T18:49:03.124Z,41.13
2023-03-19T18:51:30.923Z,41.45
2023-03-19T18:53:58.510Z,42.33
2023-03-19T18:56:32.987Z,34.47
2023-03-19T18:59:01.700Z,44.28
2023-03-19T19:01:29.802Z,33.70
2023-03-19T19:03:57.447Z,37.95
2023-03-19T19:06:46.739Z,41.38
2023-03-19T19:09:15.213Z,39.75
2023-03-19T19:11:47.626Z,36.90
2023-03-19T19:14:25.354Z,30.58
2023-03-19T19:16:54.554Z,31.52
2023-03-19T19:19:24.989Z,30.17
2023-03-19T19:21:53.180Z,33.00
2023-03-19T19:24:21.586Z,27.83
2023-03-19T19:26:54.116Z,27.95
2023-03-19T19:29:31.442Z,23.52
2023-03-19T19:32:00.554Z,36.63
2023-03-19T19:34:28.078Z,29.17
2023-03-19T19:36:58.622Z,34.15
2023-03-19T19:39:27.395Z,34.28
2023-03-19T19:41:55.724Z,31.23
2023-03-19T19:44:23.754Z,33.28
2023-03-19T19:46:55.802Z,28.60
2023-03-19T19:49:25.157Z,24.55
2023-03-19T19:51:53.955Z,27.95
2023-03-19T19:54:22.840Z,23.15
2023-03-19T19:56:52.193Z,18.35
2023-03-19T19:59:21.557Z,21.70
2023-03-19T20:01:49.192Z,21.63
2023-03-19T20:04:18.212Z,19.23
2023-03-19T20:06:45.803Z,20.98
2023-03-19T20:09:13.398Z,19.50
2023-03-19T20:11:42.162Z,24.52
2023-03-19T20:14:14.599Z,22.83
2023-03-19T20:16:45.203Z,17.33
2023-03-19T20:19:19.503Z,24.85
2023-03-19T20:21:47.217Z,21.83
2023-03-19T20:24:14.797Z,24.45
2023-03-19T20:26:42.781Z,22.85
2023-03-19T20:29:16.588Z,18.65
2023-03-19T20:31:47.003Z,23.13
2023-03-19T20:34:32.421Z,24.80
2023-03-19T20:37:04.129Z,25.92
2023-03-19T20:39:31.664Z,20.33
2023-03-19T20:41:59.277Z,21.80
2023-03-19T20:44:27.116Z,23.88
2023-03-19T20:46:54.666Z,27.63
2023-03-19T20:49:22.743Z,23.25
2023-03-19T20:51:50.547Z,21.77
2023-03-19T20:54:18.047Z,27.25
2023-03-19T20:56:46.348Z,19.88
2023-03-19T20:59:13.908Z,18.45
2023-03-19T21:01:41.554Z,23.25
2023-03-19T21:04:18.846Z,21.95
2023-03-19T21:06:53.310Z,22.23
2023-03-19T21:09:21.574Z,18.67
2023-03-19T21:11:49.748Z,16.27
2023-03-19T21:14:17.253Z,19.00
2023-03-19T21:16:44.810Z,14.20
2023-03-19T21:19:12.585Z,17.58
2023-03-19T21:21:42.108Z,14.27
2023-03-19T21:24:16.569Z,17.80
2023-03-19T21:26:45.787Z,14.52
2023-03-19T21:29:27.759Z,15.73
2023-03-19T21:31:56.683Z,14.95
2023-03-19T21:34:24.248Z,18.65
2023-03-19T21:36:52.024Z,22.30
2023-03-19T21:39:19.583Z,21.08
2023-03-19T21:41:47.561Z,15.00
2023-03-19T21:44:19.622Z,15.18
2023-03-19T21:46:49.088Z,17.67
2023-03-19T21:49:17.604Z,14.88
2023-03-19T21:51:46.726Z,17.13
2023-03-19T21:54:15.645Z,13.70
2023-03-19T21:56:46.159Z,13.48
2023-03-19T21:59:23.646Z,16.88
2023-03-19T22:01:51.419Z,13.82
2023-03-19T22:04:19.605Z,16.88
2023-03-19T22:06:49.081Z,12.07
2023-03-19T22:09:16.592Z,13.73
2023-03-19T22:11:45.955Z,12.45
2023-03-19T22:14:19.007Z,10.77
2023-03-19T22:16:47.858Z,10.05
2023-03-19T22:19:19.095Z,8.52
2023-03-19T22:21:47.341Z,9.27
2023-03-19T22:24:14.894Z,14.00
2023-03-19T22:26:44.333Z,10.82
2023-03-19T22:29:18.430Z,11.30
2023-03-19T22:31:46.533Z,10.43
2023-03-19T22:34:22.886Z,11.52
2023-03-19T22:36:50.692Z,13.38
2023-03-19T22:39:18.679Z,13.48
2023-03-19T22:41:48.624Z,22.98
2023-03-19T22:44:29.160Z,11.70
2023-03-19T22:46:58.253Z,12.05
2023-03-19T22:49:26.418Z,10.68
2023-03-19T22:51:53.904Z,13.40
2023-03-19T22:54:21.451Z,15.75
2023-03-19T22:56:48.956Z,11.30
2023-03-19T22:59:16.472Z,11.05
2023-03-19T23:01:48.419Z,9.98
2023-03-19T23:04:20.272Z,10.68
2023-03-19T23:06:48.471Z,14.35
2023-03-19T23:09:18.408Z,13.15
2023-03-19T23:11:46.300Z,14.90
2023-03-19T23:14:27.903Z,10.98
2023-03-19T23:19:33.098Z,15.43
2023-03-19T23:22:02.479Z,20.13
2023-03-19T23:24:31.051Z,16.17
2023-03-19T23:27:00.467Z,16.30
2023-03-19T23:29:33.045Z,23.40
2023-03-19T23:32:00.908Z,26.30
2023-03-19T23:34:29.465Z,20.77
2023-03-19T23:36:57.929Z,20.60
2023-03-19T23:39:25.591Z,21.90
2023-03-19T23:41:57.086Z,22.00
2023-03-19T23:44:24.665Z,21.65
2023-03-19T23:46:52.646Z,26.42
2023-03-19T23:49:29.810Z,20.50
2023-03-19T23:51:57.432Z,27.23
2023-03-19T23:54:32.844Z,21.40
2023-03-19T23:57:04.187Z,23.15
2023-03-19T23:59:35.730Z,17.13
